sensor_id;sensor_type;location;lat;lon;timestamp;P1;durP1;ratioP1;P2;durP2;ratioP2
32329;SDS011;18807;52.434;13.238;2023-02-01T00:03:35;15.80;;;2.50;;
32329;SDS011;18807;52.434;13.238;2023-02-01T00:11:10;12.35;;;2.20;;
32329;SDS011;18807;52.434;13.238;2023-02-01T00:18:47;12.02;;;2.45;;
32329;SDS011;18807;52.434;13.238;2023-02-01T00:26:25;16.05;;;2.63;;
32329;SDS011;18807;52.434;13.238;2023-02-01T00:34:05;14.38;;;2.00;;
32329;SDS011;18807;52.434;13.238;2023-02-01T00:41:41;12.27;;;2.30;;
32329;SDS011;18807;52.434;13.238;2023-02-01T00:49:17;12.88;;;2.08;;
32329;SDS011;18807;52.434;13.238;2023-02-01T00:56:51;13.75;;;1.98;;
32329;SDS011;18807;52.434;13.238;2023-02-01T01:04:26;10.60;;;1.65;;
32329;SDS011;18807;52.434;13.238;2023-02-01T01:12:00;19.17;;;2.60;;
32329;SDS011;18807;52.434;13.238;2023-02-01T01:19:36;10.93;;;2.20;;
32329;SDS011;18807;52.434;13.238;2023-02-01T01:27:10;19.25;;;4.15;;
32329;SDS011;18807;52.434;13.238;2023-02-01T01:34:45;12.03;;;2.60;;
32329;SDS011;18807;52.434;13.238;2023-02-01T01:42:19;11.20;;;2.28;;
32329;SDS011;18807;52.434;13.238;2023-02-01T01:49:54;11.23;;;1.67;;
32329;SDS011;18807;52.434;13.238;2023-02-01T01:57:29;11.18;;;1.80;;
32329;SDS011;18807;52.434;13.238;2023-02-01T02:05:09;16.83;;;3.03;;
32329;SDS011;18807;52.434;13.238;2023-02-01T02:12:44;15.20;;;2.63;;
32329;SDS011;18807;52.434;13.238;2023-02-01T02:20:43;9.95;;;2.20;;
32329;SDS011;18807;52.434;13.238;2023-02-01T02:28:37;17.48;;;3.30;;
32329;SDS011;18807;52.434;13.238;2023-02-01T02:36:31;15.35;;;2.28;;
32329;SDS011;18807;52.434;13.238;2023-02-01T02:44:13;17.27;;;3.10;;
32329;SDS011;18807;52.434;13.238;2023-02-01T02:52:13;24.77;;;2.55;;
32329;SDS011;18807;52.434;13.238;2023-02-01T03:00:11;18.38;;;3.78;;
32329;SDS011;18807;52.434;13.238;2023-02-01T03:08:10;16.50;;;3.13;;
32329;SDS011;18807;52.434;13.238;2023-02-01T03:15:47;10.27;;;2.40;;
32329;SDS011;18807;52.434;13.238;2023-02-01T03:23:27;16.13;;;2.63;;
32329;SDS011;18807;52.434;13.238;2023-02-01T03:31:04;15.85;;;4.38;;
32329;SDS011;18807;52.434;13.238;2023-02-01T03:46:19;13.95;;;2.72;;
32329;SDS011;18807;52.434;13.238;2023-02-01T03:54:02;17.80;;;2.63;;
32329;SDS011;18807;52.434;13.238;2023-02-01T04:01:38;13.25;;;3.45;;
32329;SDS011;18807;52.434;13.238;2023-02-01T04:09:14;14.85;;;4.22;;
32329;SDS011;18807;52.434;13.238;2023-02-01T04:16:48;13.68;;;1.95;;
32329;SDS011;18807;52.434;13.238;2023-02-01T04:24:24;7.37;;;2.13;;
32329;SDS011;18807;52.434;13.238;2023-02-01T04:31:58;21.55;;;3.25;;
32329;SDS011;18807;52.434;13.238;2023-02-01T04:39:33;16.02;;;2.40;;
32329;SDS011;18807;52.434;13.238;2023-02-01T04:47:07;15.45;;;2.50;;
32329;SDS011;18807;52.434;13.238;2023-02-01T05:02:17;13.40;;;2.80;;
32329;SDS011;18807;52.434;13.238;2023-02-01T05:09:52;17.97;;;2.50;;
32329;SDS011;18807;52.434;13.238;2023-02-01T05:17:26;12.43;;;2.72;;
32329;SDS011;18807;52.434;13.238;2023-02-01T05:25:02;10.60;;;2.13;;
32329;SDS011;18807;52.434;13.238;2023-02-01T05:32:39;16.23;;;3.90;;
32329;SDS011;18807;52.434;13.238;2023-02-01T05:40:14;12.63;;;2.65;;
32329;SDS011;18807;52.434;13.238;2023-02-01T05:47:48;14.63;;;2.83;;
32329;SDS011;18807;52.434;13.238;2023-02-01T05:55:24;13.27;;;2.50;;
32329;SDS011;18807;52.434;13.238;2023-02-01T06:02:57;14.10;;;3.30;;
32329;SDS011;18807;52.434;13.238;2023-02-01T06:10:33;13.33;;;2.73;;
32329;SDS011;18807;52.434;13.238;2023-02-01T06:18:07;13.23;;;2.90;;
32329;SDS011;18807;52.434;13.238;2023-02-01T06:25:42;12.10;;;2.80;;
32329;SDS011;18807;52.434;13.238;2023-02-01T06:33:17;6.43;;;2.13;;
32329;SDS011;18807;52.434;13.238;2023-02-01T06:40:53;12.30;;;2.40;;
32329;SDS011;18807;52.434;13.238;2023-02-01T06:48:28;20.70;;;3.25;;
32329;SDS011;18807;52.434;13.238;2023-02-01T06:56:04;16.93;;;2.80;;
32329;SDS011;18807;52.434;13.238;2023-02-01T07:03:38;17.92;;;3.08;;
32329;SDS011;18807;52.434;13.238;2023-02-01T07:11:14;10.53;;;2.93;;
32329;SDS011;18807;52.434;13.238;2023-02-01T07:18:49;16.48;;;3.55;;
32329;SDS011;18807;52.434;13.238;2023-02-01T07:26:25;10.95;;;2.17;;
32329;SDS011;18807;52.434;13.238;2023-02-01T07:33:59;11.48;;;2.70;;
32329;SDS011;18807;52.434;13.238;2023-02-01T07:41:36;14.82;;;3.38;;
32329;SDS011;18807;52.434;13.238;2023-02-01T07:49:10;13.43;;;3.35;;
32329;SDS011;18807;52.434;13.238;2023-02-01T07:56:48;10.38;;;2.78;;
32329;SDS011;18807;52.434;13.238;2023-02-01T08:04:21;9.48;;;2.90;;
32329;SDS011;18807;52.434;13.238;2023-02-01T08:11:57;8.80;;;3.07;;
32329;SDS011;18807;52.434;13.238;2023-02-01T08:19:31;14.57;;;3.00;;
32329;SDS011;18807;52.434;13.238;2023-02-01T08:27:06;13.93;;;3.80;;
32329;SDS011;18807;52.434;13.238;2023-02-01T08:34:40;10.82;;;3.20;;
32329;SDS011;18807;52.434;13.238;2023-02-01T08:42:30;8.15;;;3.33;;
32329;SDS011;18807;52.434;13.238;2023-02-01T08:50:18;7.72;;;2.53;;
32329;SDS011;18807;52.434;13.238;2023-02-01T08:57:55;6.90;;;1.60;;
32329;SDS011;18807;52.434;13.238;2023-02-01T09:05:29;2.20;;;2.00;;
32329;SDS011;18807;52.434;13.238;2023-02-01T09:13:21;3.88;;;1.40;;
32329;SDS011;18807;52.434;13.238;2023-02-01T09:20:55;3.50;;;1.10;;
32329;SDS011;18807;52.434;13.238;2023-02-01T09:28:30;5.57;;;1.90;;
32329;SDS011;18807;52.434;13.238;2023-02-01T09:36:04;5.63;;;1.67;;
32329;SDS011;18807;52.434;13.238;2023-02-01T09:43:41;5.93;;;1.50;;
32329;SDS011;18807;52.434;13.238;2023-02-01T09:51:23;4.20;;;1.45;;
32329;SDS011;18807;52.434;13.238;2023-02-01T09:59:04;4.82;;;1.55;;
32329;SDS011;18807;52.434;13.238;2023-02-01T10:06:51;2.70;;;0.88;;
32329;SDS011;18807;52.434;13.238;2023-02-01T10:14:43;5.53;;;0.95;;
32329;SDS011;18807;52.434;13.238;2023-02-01T10:22:31;4.23;;;1.00;;
32329;SDS011;18807;52.434;13.238;2023-02-01T10:30:36;3.25;;;0.75;;
32329;SDS011;18807;52.434;13.238;2023-02-01T10:38:17;4.28;;;1.08;;
32329;SDS011;18807;52.434;13.238;2023-02-01T10:45:59;3.83;;;0.90;;
32329;SDS011;18807;52.434;13.238;2023-02-01T10:53:33;4.43;;;1.33;;
32329;SDS011;18807;52.434;13.238;2023-02-01T11:01:17;4.90;;;1.60;;
32329;SDS011;18807;52.434;13.238;2023-02-01T11:08:54;5.25;;;1.80;;
32329;SDS011;18807;52.434;13.238;2023-02-01T11:16:32;6.80;;;1.38;;
32329;SDS011;18807;52.434;13.238;2023-02-01T11:24:11;4.50;;;1.27;;
32329;SDS011;18807;52.434;13.238;2023-02-01T11:31:53;6.37;;;1.87;;
32329;SDS011;18807;52.434;13.238;2023-02-01T11:39:29;9.57;;;1.50;;
32329;SDS011;18807;52.434;13.238;2023-02-01T11:47:22;9.23;;;1.40;;
32329;SDS011;18807;52.434;13.238;2023-02-01T11:55:02;6.65;;;1.42;;
32329;SDS011;18807;52.434;13.238;2023-02-01T12:03:00;8.35;;;2.25;;
32329;SDS011;18807;52.434;13.238;2023-02-01T12:10:56;13.25;;;1.65;;
32329;SDS011;18807;52.434;13.238;2023-02-01T12:19:09;11.80;;;2.05;;
32329;SDS011;18807;52.434;13.238;2023-02-01T12:26:54;9.23;;;1.75;;
32329;SDS011;18807;52.434;13.238;2023-02-01T12:42:39;13.93;;;2.33;;
32329;SDS011;18807;52.434;13.238;2023-02-01T12:50:19;9.25;;;1.65;;
32329;SDS011;18807;52.434;13.238;2023-02-01T12:58:00;6.32;;;1.98;;
32329;SDS011;18807;52.434;13.238;2023-02-01T13:05:50;4.07;;;1.17;;
32329;SDS011;18807;52.434;13.238;2023-02-01T13:13:28;5.47;;;1.50;;
32329;SDS011;18807;52.434;13.238;2023-02-01T13:21:08;8.30;;;1.70;;
32329;SDS011;18807;52.434;13.238;2023-02-01T13:28:47;4.55;;;1.15;;
32329;SDS011;18807;52.434;13.238;2023-02-01T13:36:37;11.43;;;1.73;;
32329;SDS011;18807;52.434;13.238;2023-02-01T13:44:22;10.57;;;1.92;;
32329;SDS011;18807;52.434;13.238;2023-02-01T13:52:02;8.32;;;1.50;;
32329;SDS011;18807;52.434;13.238;2023-02-01T14:15:54;8.35;;;2.10;;
32329;SDS011;18807;52.434;13.238;2023-02-01T14:23:46;7.70;;;2.13;;
32329;SDS011;18807;52.434;13.238;2023-02-01T14:39:47;10.85;;;2.90;;
32329;SDS011;18807;52.434;13.238;2023-02-01T14:47:28;11.52;;;2.00;;
32329;SDS011;18807;52.434;13.238;2023-02-01T14:55:06;4.85;;;2.50;;
32329;SDS011;18807;52.434;13.238;2023-02-01T15:02:47;3.92;;;1.10;;
32329;SDS011;18807;52.434;13.238;2023-02-01T15:10:24;2.28;;;1.00;;
32329;SDS011;18807;52.434;13.238;2023-02-01T15:17:58;6.45;;;1.50;;
32329;SDS011;18807;52.434;13.238;2023-02-01T15:25:35;7.47;;;2.45;;
32329;SDS011;18807;52.434;13.238;2023-02-01T15:33:14;5.13;;;1.83;;
32329;SDS011;18807;52.434;13.238;2023-02-01T15:40:55;5.18;;;1.10;;
32329;SDS011;18807;52.434;13.238;2023-02-01T15:48:32;2.95;;;1.45;;
32329;SDS011;18807;52.434;13.238;2023-02-01T15:56:11;5.60;;;1.73;;
32329;SDS011;18807;52.434;13.238;2023-02-01T16:03:47;6.30;;;1.60;;
32329;SDS011;18807;52.434;13.238;2023-02-01T16:11:25;2.45;;;1.10;;
32329;SDS011;18807;52.434;13.238;2023-02-01T16:19:02;1.45;;;0.77;;
32329;SDS011;18807;52.434;13.238;2023-02-01T16:26:38;2.47;;;1.40;;
32329;SDS011;18807;52.434;13.238;2023-02-01T16:34:13;1.33;;;0.90;;
32329;SDS011;18807;52.434;13.238;2023-02-01T16:41:50;1.08;;;0.98;;
32329;SDS011;18807;52.434;13.238;2023-02-01T16:49:25;0.45;;;0.35;;
32329;SDS011;18807;52.434;13.238;2023-02-01T16:57:01;1.88;;;0.38;;
32329;SDS011;18807;52.434;13.238;2023-02-01T17:04:35;1.17;;;0.65;;
32329;SDS011;18807;52.434;13.238;2023-02-01T17:12:13;2.05;;;0.55;;
32329;SDS011;18807;52.434;13.238;2023-02-01T17:27:29;5.65;;;1.73;;
32329;SDS011;18807;52.434;13.238;2023-02-01T17:35:03;3.38;;;1.40;;
32329;SDS011;18807;52.434;13.238;2023-02-01T17:42:38;3.35;;;0.82;;
32329;SDS011;18807;52.434;13.238;2023-02-01T17:50:12;4.32;;;1.20;;
32329;SDS011;18807;52.434;13.238;2023-02-01T17:57:48;2.60;;;0.82;;
32329;SDS011;18807;52.434;13.238;2023-02-01T18:05:25;3.70;;;0.70;;
32329;SDS011;18807;52.434;13.238;2023-02-01T18:13:02;2.92;;;1.08;;
32329;SDS011;18807;52.434;13.238;2023-02-01T18:20:36;10.50;;;2.58;;
32329;SDS011;18807;52.434;13.238;2023-02-01T18:28:16;5.35;;;1.60;;
32329;SDS011;18807;52.434;13.238;2023-02-01T18:35:51;4.35;;;1.38;;
32329;SDS011;18807;52.434;13.238;2023-02-01T18:43:47;5.93;;;1.65;;
32329;SDS011;18807;52.434;13.238;2023-02-01T18:51:22;5.55;;;1.23;;
32329;SDS011;18807;52.434;13.238;2023-02-01T18:58:58;5.30;;;1.13;;
32329;SDS011;18807;52.434;13.238;2023-02-01T19:06:32;6.80;;;0.70;;
32329;SDS011;18807;52.434;13.238;2023-02-01T19:14:08;8.10;;;1.20;;
32329;SDS011;18807;52.434;13.238;2023-02-01T19:21:42;3.90;;;1.15;;
32329;SDS011;18807;52.434;13.238;2023-02-01T19:36:52;7.18;;;0.90;;
32329;SDS011;18807;52.434;13.238;2023-02-01T19:52:01;4.93;;;1.47;;
32329;SDS011;18807;52.434;13.238;2023-02-01T19:59:37;5.18;;;2.47;;
32329;SDS011;18807;52.434;13.238;2023-02-01T20:07:11;5.45;;;1.25;;
32329;SDS011;18807;52.434;13.238;2023-02-01T20:14:46;10.17;;;1.47;;
32329;SDS011;18807;52.434;13.238;2023-02-01T20:22:20;10.77;;;1.55;;
32329;SDS011;18807;52.434;13.238;2023-02-01T20:29:56;6.68;;;1.20;;
32329;SDS011;18807;52.434;13.238;2023-02-01T20:37:30;8.55;;;1.70;;
32329;SDS011;18807;52.434;13.238;2023-02-01T20:45:10;3.00;;;1.23;;
32329;SDS011;18807;52.434;13.238;2023-02-01T20:52:44;10.43;;;1.30;;
32329;SDS011;18807;52.434;13.238;2023-02-01T21:00:19;9.30;;;1.97;;
32329;SDS011;18807;52.434;13.238;2023-02-01T21:07:54;7.15;;;0.95;;
32329;SDS011;18807;52.434;13.238;2023-02-01T21:15:30;2.77;;;1.70;;
32329;SDS011;18807;52.434;13.238;2023-02-01T21:23:05;6.18;;;0.90;;
32329;SDS011;18807;52.434;13.238;2023-02-01T21:30:41;10.15;;;1.80;;
32329;SDS011;18807;52.434;13.238;2023-02-01T21:38:15;12.05;;;1.27;;
32329;SDS011;18807;52.434;13.238;2023-02-01T21:45:50;7.70;;;1.17;;
32329;SDS011;18807;52.434;13.238;2023-02-01T21:53:24;10.68;;;2.10;;
32329;SDS011;18807;52.434;13.238;2023-02-01T22:01:00;8.67;;;1.30;;
32329;SDS011;18807;52.434;13.238;2023-02-01T22:08:34;8.27;;;1.33;;
32329;SDS011;18807;52.434;13.238;2023-02-01T22:16:10;5.57;;;1.13;;
32329;SDS011;18807;52.434;13.238;2023-02-01T22:23:49;8.43;;;1.95;;
32329;SDS011;18807;52.434;13.238;2023-02-01T22:31:26;6.93;;;1.00;;
32329;SDS011;18807;52.434;13.238;2023-02-01T22:39:00;6.20;;;1.23;;
32329;SDS011;18807;52.434;13.238;2023-02-01T22:46:36;7.95;;;1.58;;
32329;SDS011;18807;52.434;13.238;2023-02-01T22:54:13;18.17;;;1.92;;
32329;SDS011;18807;52.434;13.238;2023-02-01T23:01:51;7.32;;;1.42;;
32329;SDS011;18807;52.434;13.238;2023-02-01T23:09:25;8.68;;;1.27;;
32329;SDS011;18807;52.434;13.238;2023-02-01T23:17:00;12.90;;;1.40;;
32329;SDS011;18807;52.434;13.238;2023-02-01T23:24:34;13.43;;;2.72;;
32329;SDS011;18807;52.434;13.238;2023-02-01T23:32:09;17.27;;;2.13;;
32329;SDS011;18807;52.434;13.238;2023-02-01T23:39:43;11.73;;;3.15;;
32329;SDS011;18807;52.434;13.238;2023-02-01T23:47:18;21.70;;;2.67;;
32329;SDS011;18807;52.434;13.238;2023-02-01T23:54:52;7.55;;;1.70;;
